sensor_id;sensor_type;location;lat;lon;timestamp;P1;durP1;ratioP1;P2;durP2;ratioP2
32228;SDS011;18717;48.034;11.186;2023-12-20T00:02:05;9.18;;;8.57;;
32228;SDS011;18717;48.034;11.186;2023-12-20T00:04:33;9.30;;;8.65;;
32228;SDS011;18717;48.034;11.186;2023-12-20T00:07:00;9.52;;;8.73;;
32228;SDS011;18717;48.034;11.186;2023-12-20T00:09:29;9.07;;;8.38;;
32228;SDS011;18717;48.034;11.186;2023-12-20T00:11:58;8.95;;;8.30;;
32228;SDS011;18717;48.034;11.186;2023-12-20T00:14:26;9.63;;;8.75;;
32228;SDS011;18717;48.034;11.186;2023-12-20T00:16:53;8.52;;;7.97;;
32228;SDS011;18717;48.034;11.186;2023-12-20T00:19:21;9.52;;;8.77;;
32228;SDS011;18717;48.034;11.186;2023-12-20T00:21:49;9.07;;;8.57;;
32228;SDS011;18717;48.034;11.186;2023-12-20T00:24:17;8.68;;;8.07;;
32228;SDS011;18717;48.034;11.186;2023-12-20T00:26:44;8.77;;;8.18;;
32228;SDS011;18717;48.034;11.186;2023-12-20T00:29:14;8.90;;;8.07;;
32228;SDS011;18717;48.034;11.186;2023-12-20T00:31:42;8.80;;;8.25;;
32228;SDS011;18717;48.034;11.186;2023-12-20T00:34:10;8.35;;;7.68;;
32228;SDS011;18717;48.034;11.186;2023-12-20T00:36:38;8.18;;;7.70;;
32228;SDS011;18717;48.034;11.186;2023-12-20T00:39:05;8.50;;;8.00;;
32228;SDS011;18717;48.034;11.186;2023-12-20T00:41:33;8.73;;;8.13;;
32228;SDS011;18717;48.034;11.186;2023-12-20T00:44:01;8.77;;;8.07;;
32228;SDS011;18717;48.034;11.186;2023-12-20T00:46:30;8.43;;;7.82;;
32228;SDS011;18717;48.034;11.186;2023-12-20T00:48:58;8.68;;;8.13;;
32228;SDS011;18717;48.034;11.186;2023-12-20T00:51:26;8.85;;;8.35;;
32228;SDS011;18717;48.034;11.186;2023-12-20T00:53:53;8.38;;;7.90;;
32228;SDS011;18717;48.034;11.186;2023-12-20T00:56:21;8.68;;;8.10;;
32228;SDS011;18717;48.034;11.186;2023-12-20T00:58:50;8.88;;;8.38;;
32228;SDS011;18717;48.034;11.186;2023-12-20T01:01:18;8.10;;;7.57;;
32228;SDS011;18717;48.034;11.186;2023-12-20T01:03:47;8.65;;;7.95;;
32228;SDS011;18717;48.034;11.186;2023-12-20T01:06:17;8.63;;;8.02;;
32228;SDS011;18717;48.034;11.186;2023-12-20T01:08:45;8.95;;;8.32;;
32228;SDS011;18717;48.034;11.186;2023-12-20T01:11:13;7.60;;;7.20;;
32228;SDS011;18717;48.034;11.186;2023-12-20T01:13:40;8.15;;;7.68;;
32228;SDS011;18717;48.034;11.186;2023-12-20T01:16:10;8.57;;;7.88;;
32228;SDS011;18717;48.034;11.186;2023-12-20T01:18:38;8.30;;;7.70;;
32228;SDS011;18717;48.034;11.186;2023-12-20T01:21:07;7.97;;;7.57;;
32228;SDS011;18717;48.034;11.186;2023-12-20T01:23:35;8.75;;;8.13;;
32228;SDS011;18717;48.034;11.186;2023-12-20T01:26:03;8.07;;;7.57;;
32228;SDS011;18717;48.034;11.186;2023-12-20T01:28:31;8.63;;;8.13;;
32228;SDS011;18717;48.034;11.186;2023-12-20T01:30:59;8.63;;;8.02;;
32228;SDS011;18717;48.034;11.186;2023-12-20T01:33:27;7.82;;;7.40;;
32228;SDS011;18717;48.034;11.186;2023-12-20T01:35:55;7.63;;;7.30;;
32228;SDS011;18717;48.034;11.186;2023-12-20T01:38:24;7.65;;;7.15;;
32228;SDS011;18717;48.034;11.186;2023-12-20T01:40:51;7.22;;;6.93;;
32228;SDS011;18717;48.034;11.186;2023-12-20T01:43:19;7.47;;;7.07;;
32228;SDS011;18717;48.034;11.186;2023-12-20T01:45:49;7.78;;;7.40;;
32228;SDS011;18717;48.034;11.186;2023-12-20T01:48:17;7.63;;;7.22;;
32228;SDS011;18717;48.034;11.186;2023-12-20T01:50:45;7.22;;;6.93;;
32228;SDS011;18717;48.034;11.186;2023-12-20T01:53:13;7.10;;;6.80;;
32228;SDS011;18717;48.034;11.186;2023-12-20T01:55:42;6.85;;;6.55;;
32228;SDS011;18717;48.034;11.186;2023-12-20T01:58:11;8.15;;;7.75;;
32228;SDS011;18717;48.034;11.186;2023-12-20T02:00:39;7.78;;;7.38;;
32228;SDS011;18717;48.034;11.186;2023-12-20T02:03:07;7.18;;;6.78;;
32228;SDS011;18717;48.034;11.186;2023-12-20T02:05:35;7.30;;;7.00;;
32228;SDS011;18717;48.034;11.186;2023-12-20T02:08:04;7.80;;;7.18;;
32228;SDS011;18717;48.034;11.186;2023-12-20T02:10:32;7.25;;;6.95;;
32228;SDS011;18717;48.034;11.186;2023-12-20T02:13:01;7.13;;;6.82;;
32228;SDS011;18717;48.034;11.186;2023-12-20T02:15:29;7.45;;;7.05;;
32228;SDS011;18717;48.034;11.186;2023-12-20T02:17:56;6.68;;;6.38;;
32228;SDS011;18717;48.034;11.186;2023-12-20T02:20:24;7.57;;;7.10;;
32228;SDS011;18717;48.034;11.186;2023-12-20T02:22:53;7.45;;;7.15;;
32228;SDS011;18717;48.034;11.186;2023-12-20T02:25:21;7.75;;;7.35;;
32228;SDS011;18717;48.034;11.186;2023-12-20T02:27:49;7.10;;;6.70;;
32228;SDS011;18717;48.034;11.186;2023-12-20T02:30:17;7.35;;;7.05;;
32228;SDS011;18717;48.034;11.186;2023-12-20T02:32:45;7.47;;;7.07;;
32228;SDS011;18717;48.034;11.186;2023-12-20T02:35:13;7.45;;;7.05;;
32228;SDS011;18717;48.034;11.186;2023-12-20T02:37:41;7.30;;;6.90;;
32228;SDS011;18717;48.034;11.186;2023-12-20T02:40:10;7.28;;;6.97;;
32228;SDS011;18717;48.034;11.186;2023-12-20T02:42:38;7.47;;;7.13;;
32228;SDS011;18717;48.034;11.186;2023-12-20T02:45:06;7.97;;;7.53;;
32228;SDS011;18717;48.034;11.186;2023-12-20T02:47:35;7.25;;;6.85;;
32228;SDS011;18717;48.034;11.186;2023-12-20T02:50:03;8.02;;;7.60;;
32228;SDS011;18717;48.034;11.186;2023-12-20T02:52:31;7.72;;;7.35;;
32228;SDS011;18717;48.034;11.186;2023-12-20T02:54:58;7.60;;;7.20;;
32228;SDS011;18717;48.034;11.186;2023-12-20T02:57:28;7.05;;;6.75;;
32228;SDS011;18717;48.034;11.186;2023-12-20T02:59:55;7.63;;;7.32;;
32228;SDS011;18717;48.034;11.186;2023-12-20T03:02:23;6.78;;;6.47;;
32228;SDS011;18717;48.034;11.186;2023-12-20T03:04:51;7.75;;;7.30;;
32228;SDS011;18717;48.034;11.186;2023-12-20T03:07:19;8.10;;;7.70;;
32228;SDS011;18717;48.034;11.186;2023-12-20T03:09:46;7.25;;;6.80;;
32228;SDS011;18717;48.034;11.186;2023-12-20T03:12:36;6.70;;;6.40;;
32228;SDS011;18717;48.034;11.186;2023-12-20T03:15:04;6.72;;;6.43;;
32228;SDS011;18717;48.034;11.186;2023-12-20T03:17:32;7.03;;;6.72;;
32228;SDS011;18717;48.034;11.186;2023-12-20T03:20:00;7.25;;;6.95;;
32228;SDS011;18717;48.034;11.186;2023-12-20T03:22:27;7.10;;;6.70;;
32228;SDS011;18717;48.034;11.186;2023-12-20T03:24:55;7.63;;;7.22;;
32228;SDS011;18717;48.034;11.186;2023-12-20T03:27:23;6.85;;;6.55;;
32228;SDS011;18717;48.034;11.186;2023-12-20T03:29:52;6.72;;;6.43;;
32228;SDS011;18717;48.034;11.186;2023-12-20T03:32:20;7.50;;;7.20;;
32228;SDS011;18717;48.034;11.186;2023-12-20T03:34:47;7.35;;;7.05;;
32228;SDS011;18717;48.034;11.186;2023-12-20T03:37:15;7.88;;;7.57;;
32228;SDS011;18717;48.034;11.186;2023-12-20T03:39:43;7.15;;;6.75;;
32228;SDS011;18717;48.034;11.186;2023-12-20T03:42:11;7.22;;;6.93;;
32228;SDS011;18717;48.034;11.186;2023-12-20T03:44:39;6.90;;;6.60;;
32228;SDS011;18717;48.034;11.186;2023-12-20T03:47:08;6.97;;;6.68;;
32228;SDS011;18717;48.034;11.186;2023-12-20T03:49:36;7.10;;;6.80;;
32228;SDS011;18717;48.034;11.186;2023-12-20T03:52:05;6.60;;;6.30;;
32228;SDS011;18717;48.034;11.186;2023-12-20T03:54:33;7.00;;;6.70;;
32228;SDS011;18717;48.034;11.186;2023-12-20T03:57:00;6.80;;;6.50;;
32228;SDS011;18717;48.034;11.186;2023-12-20T03:59:28;6.90;;;6.60;;
32228;SDS011;18717;48.034;11.186;2023-12-20T04:01:56;7.40;;;7.10;;
32228;SDS011;18717;48.034;11.186;2023-12-20T04:04:25;7.50;;;7.00;;
32228;SDS011;18717;48.034;11.186;2023-12-20T04:06:53;7.95;;;7.40;;
32228;SDS011;18717;48.034;11.186;2023-12-20T04:09:21;7.95;;;7.55;;
32228;SDS011;18717;48.034;11.186;2023-12-20T04:11:48;7.13;;;6.82;;
32228;SDS011;18717;48.034;11.186;2023-12-20T04:14:16;7.80;;;7.22;;
32228;SDS011;18717;48.034;11.186;2023-12-20T04:16:44;7.07;;;6.78;;
32228;SDS011;18717;48.034;11.186;2023-12-20T04:19:13;7.53;;;7.18;;
32228;SDS011;18717;48.034;11.186;2023-12-20T04:21:42;7.50;;;7.10;;
32228;SDS011;18717;48.034;11.186;2023-12-20T04:24:10;7.40;;;7.10;;
32228;SDS011;18717;48.034;11.186;2023-12-20T04:26:37;7.88;;;7.47;;
32228;SDS011;18717;48.034;11.186;2023-12-20T04:29:05;7.72;;;7.35;;
32228;SDS011;18717;48.034;11.186;2023-12-20T04:31:33;7.70;;;7.30;;
32228;SDS011;18717;48.034;11.186;2023-12-20T04:34:01;7.72;;;7.32;;
32228;SDS011;18717;48.034;11.186;2023-12-20T04:36:29;7.88;;;7.45;;
32228;SDS011;18717;48.034;11.186;2023-12-20T04:38:58;7.80;;;7.30;;
32228;SDS011;18717;48.034;11.186;2023-12-20T04:41:26;8.13;;;7.55;;
32228;SDS011;18717;48.034;11.186;2023-12-20T04:43:54;8.32;;;7.82;;
32228;SDS011;18717;48.034;11.186;2023-12-20T04:46:22;8.02;;;7.43;;
32228;SDS011;18717;48.034;11.186;2023-12-20T04:48:50;8.00;;;7.50;;
32228;SDS011;18717;48.034;11.186;2023-12-20T04:51:18;8.25;;;7.75;;
32228;SDS011;18717;48.034;11.186;2023-12-20T04:53:46;8.57;;;7.95;;
32228;SDS011;18717;48.034;11.186;2023-12-20T04:56:15;8.20;;;7.72;;
32228;SDS011;18717;48.034;11.186;2023-12-20T04:58:43;8.18;;;7.78;;
32228;SDS011;18717;48.034;11.186;2023-12-20T05:01:10;8.25;;;7.57;;
32228;SDS011;18717;48.034;11.186;2023-12-20T05:03:39;8.13;;;7.70;;
32228;SDS011;18717;48.034;11.186;2023-12-20T05:06:07;9.00;;;8.50;;
32228;SDS011;18717;48.034;11.186;2023-12-20T05:08:34;8.43;;;7.82;;
32228;SDS011;18717;48.034;11.186;2023-12-20T05:11:02;8.48;;;7.88;;
32228;SDS011;18717;48.034;11.186;2023-12-20T05:13:32;8.45;;;7.95;;
32228;SDS011;18717;48.034;11.186;2023-12-20T05:16:12;7.68;;;7.20;;
32228;SDS011;18717;48.034;11.186;2023-12-20T05:18:44;8.05;;;7.60;;
32228;SDS011;18717;48.034;11.186;2023-12-20T05:21:12;7.85;;;7.35;;
32228;SDS011;18717;48.034;11.186;2023-12-20T05:23:40;8.50;;;8.00;;
32228;SDS011;18717;48.034;11.186;2023-12-20T05:26:07;7.93;;;7.45;;
32228;SDS011;18717;48.034;11.186;2023-12-20T05:28:36;8.23;;;7.63;;
32228;SDS011;18717;48.034;11.186;2023-12-20T05:31:04;8.13;;;7.53;;
32228;SDS011;18717;48.034;11.186;2023-12-20T05:33:33;7.75;;;7.35;;
32228;SDS011;18717;48.034;11.186;2023-12-20T05:36:01;8.73;;;8.10;;
32228;SDS011;18717;48.034;11.186;2023-12-20T05:38:29;7.80;;;7.40;;
32228;SDS011;18717;48.034;11.186;2023-12-20T05:40:56;8.15;;;7.35;;
32228;SDS011;18717;48.034;11.186;2023-12-20T05:43:24;8.15;;;7.55;;
32228;SDS011;18717;48.034;11.186;2023-12-20T05:45:53;8.30;;;7.80;;
32228;SDS011;18717;48.034;11.186;2023-12-20T05:48:21;7.25;;;6.85;;
32228;SDS011;18717;48.034;11.186;2023-12-20T05:50:49;7.85;;;7.45;;
32228;SDS011;18717;48.034;11.186;2023-12-20T05:53:16;8.50;;;8.00;;
32228;SDS011;18717;48.034;11.186;2023-12-20T05:55:44;7.78;;;7.07;;
32228;SDS011;18717;48.034;11.186;2023-12-20T05:58:12;8.40;;;7.90;;
32228;SDS011;18717;48.034;11.186;2023-12-20T06:00:39;7.82;;;7.43;;
32228;SDS011;18717;48.034;11.186;2023-12-20T06:03:09;7.05;;;6.63;;
32228;SDS011;18717;48.034;11.186;2023-12-20T06:05:36;7.95;;;7.55;;
32228;SDS011;18717;48.034;11.186;2023-12-20T06:08:04;6.63;;;6.32;;
32228;SDS011;18717;48.034;11.186;2023-12-20T06:10:33;7.25;;;6.90;;
32228;SDS011;18717;48.034;11.186;2023-12-20T06:13:01;6.90;;;6.53;;
32228;SDS011;18717;48.034;11.186;2023-12-20T06:15:30;7.13;;;6.72;;
32228;SDS011;18717;48.034;11.186;2023-12-20T06:17:58;7.15;;;6.85;;
32228;SDS011;18717;48.034;11.186;2023-12-20T06:20:27;6.47;;;6.18;;
32228;SDS011;18717;48.034;11.186;2023-12-20T06:22:55;7.05;;;6.75;;
32228;SDS011;18717;48.034;11.186;2023-12-20T06:25:23;7.05;;;6.72;;
32228;SDS011;18717;48.034;11.186;2023-12-20T06:27:50;7.28;;;6.97;;
32228;SDS011;18717;48.034;11.186;2023-12-20T06:30:18;7.25;;;6.85;;
32228;SDS011;18717;48.034;11.186;2023-12-20T06:32:46;7.32;;;6.93;;
32228;SDS011;18717;48.034;11.186;2023-12-20T06:35:14;6.75;;;6.45;;
32228;SDS011;18717;48.034;11.186;2023-12-20T06:37:43;7.22;;;6.90;;
32228;SDS011;18717;48.034;11.186;2023-12-20T06:40:11;6.68;;;6.38;;
32228;SDS011;18717;48.034;11.186;2023-12-20T06:42:44;7.20;;;6.90;;
32228;SDS011;18717;48.034;11.186;2023-12-20T06:45:27;6.93;;;6.63;;
32228;SDS011;18717;48.034;11.186;2023-12-20T06:47:54;6.70;;;6.40;;
32228;SDS011;18717;48.034;11.186;2023-12-20T06:50:22;6.90;;;6.63;;
32228;SDS011;18717;48.034;11.186;2023-12-20T06:52:51;6.53;;;6.22;;
32228;SDS011;18717;48.034;11.186;2023-12-20T06:55:19;7.03;;;6.65;;
32228;SDS011;18717;48.034;11.186;2023-12-20T06:57:47;6.82;;;6.32;;
32228;SDS011;18717;48.034;11.186;2023-12-20T07:00:15;7.30;;;6.80;;
32228;SDS011;18717;48.034;11.186;2023-12-20T07:02:44;7.32;;;7.03;;
32228;SDS011;18717;48.034;11.186;2023-12-20T07:05:11;6.80;;;6.50;;
32228;SDS011;18717;48.034;11.186;2023-12-20T07:07:39;7.25;;;6.95;;
32228;SDS011;18717;48.034;11.186;2023-12-20T07:10:09;6.35;;;6.05;;
32228;SDS011;18717;48.034;11.186;2023-12-20T07:12:36;6.63;;;6.32;;
32228;SDS011;18717;48.034;11.186;2023-12-20T07:15:04;7.30;;;7.00;;
32228;SDS011;18717;48.034;11.186;2023-12-20T07:17:33;7.10;;;6.72;;
32228;SDS011;18717;48.034;11.186;2023-12-20T07:20:01;7.10;;;6.70;;
32228;SDS011;18717;48.034;11.186;2023-12-20T07:22:30;6.55;;;6.25;;
32228;SDS011;18717;48.034;11.186;2023-12-20T07:24:58;6.93;;;6.63;;
32228;SDS011;18717;48.034;11.186;2023-12-20T07:27:28;6.75;;;6.35;;
32228;SDS011;18717;48.034;11.186;2023-12-20T07:29:55;7.10;;;6.60;;
32228;SDS011;18717;48.034;11.186;2023-12-20T07:32:23;6.65;;;6.35;;
32228;SDS011;18717;48.034;11.186;2023-12-20T07:34:51;6.65;;;6.35;;
32228;SDS011;18717;48.034;11.186;2023-12-20T07:37:20;6.85;;;6.55;;
32228;SDS011;18717;48.034;11.186;2023-12-20T07:39:48;6.63;;;6.32;;
32228;SDS011;18717;48.034;11.186;2023-12-20T07:42:15;6.90;;;6.53;;
32228;SDS011;18717;48.034;11.186;2023-12-20T07:44:44;7.00;;;6.57;;
32228;SDS011;18717;48.034;11.186;2023-12-20T07:47:12;6.38;;;6.07;;
32228;SDS011;18717;48.034;11.186;2023-12-20T07:49:43;6.57;;;6.28;;
32228;SDS011;18717;48.034;11.186;2023-12-20T07:52:11;6.75;;;6.30;;
32228;SDS011;18717;48.034;11.186;2023-12-20T07:54:39;7.13;;;6.72;;
32228;SDS011;18717;48.034;11.186;2023-12-20T07:57:07;7.25;;;6.95;;
32228;SDS011;18717;48.034;11.186;2023-12-20T07:59:35;6.10;;;5.80;;
32228;SDS011;18717;48.034;11.186;2023-12-20T08:02:04;6.35;;;6.05;;
32228;SDS011;18717;48.034;11.186;2023-12-20T08:04:32;6.43;;;6.22;;
32228;SDS011;18717;48.034;11.186;2023-12-20T08:06:59;6.90;;;6.60;;
32228;SDS011;18717;48.034;11.186;2023-12-20T08:09:27;6.60;;;6.28;;
32228;SDS011;18717;48.034;11.186;2023-12-20T08:11:55;6.65;;;6.35;;
32228;SDS011;18717;48.034;11.186;2023-12-20T08:14:23;6.43;;;6.13;;
32228;SDS011;18717;48.034;11.186;2023-12-20T08:16:50;6.93;;;6.72;;
32228;SDS011;18717;48.034;11.186;2023-12-20T08:19:19;5.82;;;5.60;;
32228;SDS011;18717;48.034;11.186;2023-12-20T08:21:47;6.32;;;6.07;;
32228;SDS011;18717;48.034;11.186;2023-12-20T08:24:15;6.55;;;6.25;;
32228;SDS011;18717;48.034;11.186;2023-12-20T08:26:43;7.32;;;7.03;;
32228;SDS011;18717;48.034;11.186;2023-12-20T08:29:12;6.63;;;6.32;;
32228;SDS011;18717;48.034;11.186;2023-12-20T08:31:40;6.35;;;6.05;;
32228;SDS011;18717;48.034;11.186;2023-12-20T08:34:08;6.38;;;6.10;;
32228;SDS011;18717;48.034;11.186;2023-12-20T08:36:39;6.45;;;6.15;;
32228;SDS011;18717;48.034;11.186;2023-12-20T08:39:07;6.18;;;5.82;;
32228;SDS011;18717;48.034;11.186;2023-12-20T08:41:35;6.30;;;6.07;;
32228;SDS011;18717;48.034;11.186;2023-12-20T08:44:03;6.80;;;6.50;;
32228;SDS011;18717;48.034;11.186;2023-12-20T08:46:31;6.72;;;6.43;;
32228;SDS011;18717;48.034;11.186;2023-12-20T08:48:58;6.82;;;6.53;;
32228;SDS011;18717;48.034;11.186;2023-12-20T08:51:27;6.63;;;6.28;;
32228;SDS011;18717;48.034;11.186;2023-12-20T08:53:56;6.60;;;6.20;;
32228;SDS011;18717;48.034;11.186;2023-12-20T08:56:24;6.97;;;6.57;;
32228;SDS011;18717;48.034;11.186;2023-12-20T08:58:52;6.60;;;6.30;;
32228;SDS011;18717;48.034;11.186;2023-12-20T09:01:19;6.65;;;6.22;;
32228;SDS011;18717;48.034;11.186;2023-12-20T09:03:47;6.57;;;6.28;;
32228;SDS011;18717;48.034;11.186;2023-12-20T09:06:15;6.75;;;6.45;;
32228;SDS011;18717;48.034;11.186;2023-12-20T09:08:43;6.97;;;6.60;;
32228;SDS011;18717;48.034;11.186;2023-12-20T09:11:12;7.32;;;6.93;;
32228;SDS011;18717;48.034;11.186;2023-12-20T09:13:40;7.18;;;6.75;;
32228;SDS011;18717;48.034;11.186;2023-12-20T09:16:08;6.82;;;6.53;;
32228;SDS011;18717;48.034;11.186;2023-12-20T09:18:36;6.75;;;6.38;;
32228;SDS011;18717;48.034;11.186;2023-12-20T09:21:03;6.78;;;6.47;;
32228;SDS011;18717;48.034;11.186;2023-12-20T09:23:31;7.65;;;7.15;;
32228;SDS011;18717;48.034;11.186;2023-12-20T09:25:59;7.22;;;6.85;;
32228;SDS011;18717;48.034;11.186;2023-12-20T09:28:28;6.95;;;6.55;;
32228;SDS011;18717;48.034;11.186;2023-12-20T09:30:56;6.55;;;6.00;;
32228;SDS011;18717;48.034;11.186;2023-12-20T09:33:24;6.45;;;6.20;;
32228;SDS011;18717;48.034;11.186;2023-12-20T09:35:52;7.03;;;6.72;;
32228;SDS011;18717;48.034;11.186;2023-12-20T09:38:20;6.93;;;6.63;;
32228;SDS011;18717;48.034;11.186;2023-12-20T09:40:48;7.25;;;6.95;;
32228;SDS011;18717;48.034;11.186;2023-12-20T09:43:18;6.57;;;6.22;;
32228;SDS011;18717;48.034;11.186;2023-12-20T09:45:48;7.10;;;6.72;;
32228;SDS011;18717;48.034;11.186;2023-12-20T09:48:17;6.30;;;6.00;;
32228;SDS011;18717;48.034;11.186;2023-12-20T09:50:46;6.82;;;6.53;;
32228;SDS011;18717;48.034;11.186;2023-12-20T09:53:19;6.68;;;6.38;;
32228;SDS011;18717;48.034;11.186;2023-12-20T09:55:47;6.55;;;6.15;;
32228;SDS011;18717;48.034;11.186;2023-12-20T09:58:15;6.50;;;6.20;;
32228;SDS011;18717;48.034;11.186;2023-12-20T10:00:43;6.90;;;6.50;;
32228;SDS011;18717;48.034;11.186;2023-12-20T10:03:12;7.05;;;6.75;;
32228;SDS011;18717;48.034;11.186;2023-12-20T10:05:43;6.60;;;6.30;;
32228;SDS011;18717;48.034;11.186;2023-12-20T10:08:12;6.00;;;5.70;;
32228;SDS011;18717;48.034;11.186;2023-12-20T10:10:39;6.40;;;6.10;;
32228;SDS011;18717;48.034;11.186;2023-12-20T10:13:13;7.10;;;6.80;;
32228;SDS011;18717;48.034;11.186;2023-12-20T10:15:42;6.82;;;6.53;;
32228;SDS011;18717;48.034;11.186;2023-12-20T10:18:11;6.40;;;6.10;;
32228;SDS011;18717;48.034;11.186;2023-12-20T10:20:41;6.38;;;6.07;;
32228;SDS011;18717;48.034;11.186;2023-12-20T10:23:10;6.53;;;6.22;;
32228;SDS011;18717;48.034;11.186;2023-12-20T10:25:38;6.60;;;6.30;;
32228;SDS011;18717;48.034;11.186;2023-12-20T10:28:09;7.28;;;6.97;;
32228;SDS011;18717;48.034;11.186;2023-12-20T10:30:38;7.32;;;6.93;;
32228;SDS011;18717;48.034;11.186;2023-12-20T10:33:06;7.00;;;6.70;;
32228;SDS011;18717;48.034;11.186;2023-12-20T10:35:37;6.63;;;6.32;;
32228;SDS011;18717;48.034;11.186;2023-12-20T10:38:11;7.20;;;6.75;;
32228;SDS011;18717;48.034;11.186;2023-12-20T10:40:40;7.18;;;6.78;;
32228;SDS011;18717;48.034;11.186;2023-12-20T10:43:08;7.07;;;6.78;;
32228;SDS011;18717;48.034;11.186;2023-12-20T10:45:36;6.45;;;6.07;;
32228;SDS011;18717;48.034;11.186;2023-12-20T10:48:04;7.30;;;7.00;;
32228;SDS011;18717;48.034;11.186;2023-12-20T10:50:32;6.68;;;6.38;;
32228;SDS011;18717;48.034;11.186;2023-12-20T10:53:01;7.38;;;7.07;;
32228;SDS011;18717;48.034;11.186;2023-12-20T10:55:29;6.60;;;6.30;;
32228;SDS011;18717;48.034;11.186;2023-12-20T10:58:00;6.57;;;6.28;;
32228;SDS011;18717;48.034;11.186;2023-12-20T11:00:28;7.13;;;6.72;;
32228;SDS011;18717;48.034;11.186;2023-12-20T11:02:57;6.90;;;6.60;;
32228;SDS011;18717;48.034;11.186;2023-12-20T11:05:31;7.30;;;6.90;;
32228;SDS011;18717;48.034;11.186;2023-12-20T11:10:35;7.07;;;6.78;;
32228;SDS011;18717;48.034;11.186;2023-12-20T11:13:08;6.30;;;6.05;;
32228;SDS011;18717;48.034;11.186;2023-12-20T11:15:39;6.57;;;6.28;;
32228;SDS011;18717;48.034;11.186;2023-12-20T11:18:07;7.53;;;7.22;;
32228;SDS011;18717;48.034;11.186;2023-12-20T11:20:37;7.05;;;6.75;;
32228;SDS011;18717;48.034;11.186;2023-12-20T11:23:08;7.40;;;7.10;;
32228;SDS011;18717;48.034;11.186;2023-12-20T11:25:49;6.93;;;6.63;;
32228;SDS011;18717;48.034;11.186;2023-12-20T11:28:20;7.47;;;7.07;;
32228;SDS011;18717;48.034;11.186;2023-12-20T11:30:50;7.00;;;6.70;;
32228;SDS011;18717;48.034;11.186;2023-12-20T11:33:21;6.60;;;6.30;;
32228;SDS011;18717;48.034;11.186;2023-12-20T11:35:52;7.05;;;6.75;;
32228;SDS011;18717;48.034;11.186;2023-12-20T11:38:24;7.18;;;6.88;;
32228;SDS011;18717;48.034;11.186;2023-12-20T11:40:53;8.18;;;7.72;;
32228;SDS011;18717;48.034;11.186;2023-12-20T11:43:31;7.00;;;6.60;;
32228;SDS011;18717;48.034;11.186;2023-12-20T11:46:02;7.57;;;7.18;;
32228;SDS011;18717;48.034;11.186;2023-12-20T11:48:31;7.63;;;7.22;;
32228;SDS011;18717;48.034;11.186;2023-12-20T11:50:59;7.35;;;6.95;;
32228;SDS011;18717;48.034;11.186;2023-12-20T11:53:28;7.28;;;6.93;;
32228;SDS011;18717;48.034;11.186;2023-12-20T11:55:57;7.68;;;7.28;;
32228;SDS011;18717;48.034;11.186;2023-12-20T11:58:25;7.05;;;6.72;;
32228;SDS011;18717;48.034;11.186;2023-12-20T12:00:53;7.50;;;7.07;;
32228;SDS011;18717;48.034;11.186;2023-12-20T12:03:20;7.32;;;6.85;;
32228;SDS011;18717;48.034;11.186;2023-12-20T12:05:50;8.57;;;7.88;;
32228;SDS011;18717;48.034;11.186;2023-12-20T12:08:18;8.40;;;7.90;;
32228;SDS011;18717;48.034;11.186;2023-12-20T12:10:50;7.72;;;7.32;;
32228;SDS011;18717;48.034;11.186;2023-12-20T12:13:17;8.13;;;7.63;;
32228;SDS011;18717;48.034;11.186;2023-12-20T12:15:45;15.80;;;11.45;;
32228;SDS011;18717;48.034;11.186;2023-12-20T12:18:15;17.83;;;13.10;;
32228;SDS011;18717;48.034;11.186;2023-12-20T12:20:43;10.30;;;9.23;;
32228;SDS011;18717;48.034;11.186;2023-12-20T12:23:11;11.52;;;10.38;;
32228;SDS011;18717;48.034;11.186;2023-12-20T12:25:38;19.02;;;13.90;;
32228;SDS011;18717;48.034;11.186;2023-12-20T12:28:10;17.33;;;10.45;;
32228;SDS011;18717;48.034;11.186;2023-12-20T12:30:38;8.30;;;7.80;;
32228;SDS011;18717;48.034;11.186;2023-12-20T12:33:19;9.57;;;8.40;;
32228;SDS011;18717;48.034;11.186;2023-12-20T12:35:47;10.52;;;8.02;;
32228;SDS011;18717;48.034;11.186;2023-12-20T12:38:15;8.32;;;7.72;;
32228;SDS011;18717;48.034;11.186;2023-12-20T12:40:43;14.35;;;9.73;;
32228;SDS011;18717;48.034;11.186;2023-12-20T12:43:12;9.18;;;8.48;;
32228;SDS011;18717;48.034;11.186;2023-12-20T12:45:40;9.85;;;8.98;;
32228;SDS011;18717;48.034;11.186;2023-12-20T12:48:08;17.48;;;11.00;;
32228;SDS011;18717;48.034;11.186;2023-12-20T12:50:35;23.85;;;11.40;;
32228;SDS011;18717;48.034;11.186;2023-12-20T12:53:03;15.73;;;9.57;;
32228;SDS011;18717;48.034;11.186;2023-12-20T12:55:31;9.00;;;8.38;;
32228;SDS011;18717;48.034;11.186;2023-12-20T13:00:43;8.90;;;8.00;;
32228;SDS011;18717;48.034;11.186;2023-12-20T13:03:11;9.82;;;8.85;;
32228;SDS011;18717;48.034;11.186;2023-12-20T13:05:38;8.70;;;7.95;;
32228;SDS011;18717;48.034;11.186;2023-12-20T13:08:10;12.27;;;9.02;;
32228;SDS011;18717;48.034;11.186;2023-12-20T13:10:38;12.25;;;8.90;;
32228;SDS011;18717;48.034;11.186;2023-12-20T13:13:06;14.48;;;9.43;;
32228;SDS011;18717;48.034;11.186;2023-12-20T13:15:35;22.38;;;11.35;;
32228;SDS011;18717;48.034;11.186;2023-12-20T13:18:03;9.57;;;8.98;;
32228;SDS011;18717;48.034;11.186;2023-12-20T13:20:32;11.18;;;8.88;;
32228;SDS011;18717;48.034;11.186;2023-12-20T13:23:00;11.23;;;8.68;;
32228;SDS011;18717;48.034;11.186;2023-12-20T13:25:28;8.85;;;8.27;;
32228;SDS011;18717;48.034;11.186;2023-12-20T13:27:56;8.45;;;7.85;;
32228;SDS011;18717;48.034;11.186;2023-12-20T13:30:23;8.38;;;7.97;;
32228;SDS011;18717;48.034;11.186;2023-12-20T13:32:52;8.23;;;7.90;;
32228;SDS011;18717;48.034;11.186;2023-12-20T13:35:20;7.85;;;7.35;;
32228;SDS011;18717;48.034;11.186;2023-12-20T13:37:48;7.70;;;7.30;;
32228;SDS011;18717;48.034;11.186;2023-12-20T13:40:16;7.72;;;7.32;;
32228;SDS011;18717;48.034;11.186;2023-12-20T13:42:44;7.93;;;7.50;;
32228;SDS011;18717;48.034;11.186;2023-12-20T13:45:12;8.13;;;7.72;;
32228;SDS011;18717;48.034;11.186;2023-12-20T13:47:40;7.68;;;7.28;;
32228;SDS011;18717;48.034;11.186;2023-12-20T13:50:09;7.90;;;7.38;;
32228;SDS011;18717;48.034;11.186;2023-12-20T13:52:37;7.65;;;7.15;;
32228;SDS011;18717;48.034;11.186;2023-12-20T13:55:05;7.85;;;7.35;;
32228;SDS011;18717;48.034;11.186;2023-12-20T13:57:35;7.43;;;7.13;;
32228;SDS011;18717;48.034;11.186;2023-12-20T14:00:20;8.13;;;7.68;;
32228;SDS011;18717;48.034;11.186;2023-12-20T14:02:48;7.72;;;7.32;;
32228;SDS011;18717;48.034;11.186;2023-12-20T14:05:17;7.97;;;7.57;;
32228;SDS011;18717;48.034;11.186;2023-12-20T14:07:46;8.35;;;7.82;;
32228;SDS011;18717;48.034;11.186;2023-12-20T14:10:14;7.85;;;7.30;;
32228;SDS011;18717;48.034;11.186;2023-12-20T14:12:42;8.10;;;7.47;;
32228;SDS011;18717;48.034;11.186;2023-12-20T14:15:11;8.10;;;7.60;;
32228;SDS011;18717;48.034;11.186;2023-12-20T14:17:40;8.52;;;8.00;;
32228;SDS011;18717;48.034;11.186;2023-12-20T14:20:09;8.90;;;8.13;;
32228;SDS011;18717;48.034;11.186;2023-12-20T14:22:40;8.73;;;8.00;;
32228;SDS011;18717;48.034;11.186;2023-12-20T14:25:10;7.93;;;7.53;;
32228;SDS011;18717;48.034;11.186;2023-12-20T14:27:39;8.70;;;7.57;;
32228;SDS011;18717;48.034;11.186;2023-12-20T14:30:07;7.32;;;6.93;;
32228;SDS011;18717;48.034;11.186;2023-12-20T14:32:35;7.18;;;6.85;;
32228;SDS011;18717;48.034;11.186;2023-12-20T14:35:04;7.93;;;7.53;;
32228;SDS011;18717;48.034;11.186;2023-12-20T14:37:33;7.55;;;7.07;;
32228;SDS011;18717;48.034;11.186;2023-12-20T14:40:03;8.35;;;7.53;;
32228;SDS011;18717;48.034;11.186;2023-12-20T14:42:31;8.10;;;7.45;;
32228;SDS011;18717;48.034;11.186;2023-12-20T14:44:58;7.88;;;7.38;;
32228;SDS011;18717;48.034;11.186;2023-12-20T14:47:26;8.27;;;7.63;;